createdAt,value
2023-01-28T00:00:50.227Z,102528.28
2023-01-28T00:04:53.543Z,102521.91
2023-01-28T00:08:57.723Z,102518.38
2023-01-28T00:13:00.495Z,102532.13
2023-01-28T00:17:05.849Z,102537.50
2023-01-28T00:21:12.306Z,102535.13
2023-01-28T00:25:16.837Z,102532.03
2023-01-28T00:29:19.913Z,102531.94
2023-01-28T00:33:22.737Z,102535.22
2023-01-28T00:37:25.503Z,102545.56
2023-01-28T00:41:30.803Z,102553.25
2023-01-28T00:45:34.310Z,102554.69
2023-01-28T00:49:37.071Z,102558.38
2023-01-28T00:53:39.818Z,102545.25
2023-01-28T00:57:44.972Z,102556.41
2023-01-28T01:01:50.626Z,102555.00
2023-01-28T01:05:53.365Z,102572.97
2023-01-28T01:09:56.136Z,102565.78
2023-01-28T01:14:05.327Z,102555.56
2023-01-28T01:18:08.244Z,102557.41
2023-01-28T01:22:11.077Z,102569.63
2023-01-28T01:26:14.406Z,102563.81
2023-01-28T01:30:18.818Z,102560.13
2023-01-28T01:34:21.613Z,102566.78
2023-01-28T01:38:25.229Z,102562.56
2023-01-28T01:42:28.187Z,102570.19
2023-01-28T01:46:37.252Z,102579.66
2023-01-28T01:50:44.374Z,102576.41
2023-01-28T01:54:49.976Z,102576.69
2023-01-28T01:58:56.507Z,102571.47
2023-01-28T02:03:01.123Z,102572.88
2023-01-28T02:07:04.516Z,102565.97
2023-01-28T02:11:09.225Z,102563.00
2023-01-28T02:15:15.343Z,102566.09
2023-01-28T02:19:23.352Z,102567.38
2023-01-28T02:23:42.922Z,102573.31
2023-01-28T02:28:10.576Z,102580.22
2023-01-28T02:32:18.941Z,102579.53
2023-01-28T02:36:28.942Z,102581.22
2023-01-28T02:40:55.315Z,102594.38
2023-01-28T02:44:59.729Z,102591.81
2023-01-28T02:49:04.514Z,102590.13
2023-01-28T02:53:39.139Z,102599.88
2023-01-28T02:57:53.061Z,102590.56
2023-01-28T03:02:05.031Z,102582.50
2023-01-28T03:06:11.009Z,102579.41
2023-01-28T03:10:17.343Z,102578.81
2023-01-28T03:14:39.013Z,102577.97
2023-01-28T03:19:05.735Z,102580.66
2023-01-28T03:23:30.150Z,102575.56
2023-01-28T03:27:58.005Z,102579.66
2023-01-28T03:32:20.459Z,102585.34
2023-01-28T03:36:42.743Z,102571.47
2023-01-28T03:40:57.993Z,102585.44
2023-01-28T03:45:04.113Z,102584.06
2023-01-28T03:49:07.143Z,102590.13
2023-01-28T03:53:16.916Z,102584.03
2023-01-28T03:57:26.192Z,102596.03
2023-01-28T04:01:29.220Z,102605.75
2023-01-28T04:05:32.948Z,102606.03
2023-01-28T04:09:38.391Z,102614.50
2023-01-28T04:14:01.670Z,102607.56
2023-01-28T04:18:14.933Z,102600.78
2023-01-28T04:22:18.240Z,102609.13
2023-01-28T04:26:22.503Z,102610.56
2023-01-28T04:30:25.751Z,102605.75
2023-01-28T04:34:57.693Z,102605.88
2023-01-28T04:39:15.249Z,102604.28
2023-01-28T04:43:30.459Z,102608.97
2023-01-28T04:47:53.398Z,102605.59
2023-01-28T04:52:14.440Z,102607.97
2023-01-28T04:56:35.872Z,102610.66
2023-01-28T05:00:42.345Z,102618.41
2023-01-28T05:04:45.480Z,102621.91
2023-01-28T05:09:01.331Z,102618.78
2023-01-28T05:13:05.971Z,102625.72
2023-01-28T05:17:10.569Z,102622.06
2023-01-28T05:21:15.088Z,102619.09
2023-01-28T05:25:19.256Z,102621.09
2023-01-28T05:29:22.584Z,102609.13
2023-01-28T05:33:26.834Z,102604.59
2023-01-28T05:37:29.851Z,102615.25
2023-01-28T05:41:33.330Z,102609.56
2023-01-28T05:45:38.819Z,102600.13
2023-01-28T05:49:47.318Z,102588.00
2023-01-28T05:54:13.033Z,102594.41
2023-01-28T05:58:15.863Z,102599.31
2023-01-28T06:02:18.720Z,102600.91
2023-01-28T06:06:24.207Z,102582.00
2023-01-28T06:10:27.245Z,102580.84
2023-01-28T06:14:31.085Z,102587.59
2023-01-28T06:18:52.519Z,102580.78
2023-01-28T06:22:56.807Z,102591.53
2023-01-28T06:26:59.938Z,102590.69
2023-01-28T06:31:02.851Z,102600.25
2023-01-28T06:35:06.556Z,102601.81
2023-01-28T06:39:10.941Z,102600.38
2023-01-28T06:43:13.762Z,102605.84
2023-01-28T06:47:16.513Z,102617.22
2023-01-28T06:51:19.294Z,102616.66
2023-01-28T06:55:23.406Z,102621.22
2023-01-28T06:59:26.921Z,102612.63
2023-01-28T07:03:29.715Z,102616.44
2023-01-28T07:07:32.495Z,102604.59
2023-01-28T07:11:36.678Z,102607.31
2023-01-28T07:15:39.516Z,102617.38
2023-01-28T07:19:42.313Z,102631.03
2023-01-28T07:23:45.039Z,102627.59
2023-01-28T07:27:54.072Z,102636.31
2023-01-28T07:31:56.894Z,102638.13
2023-01-28T07:35:59.723Z,102630.94
2023-01-28T07:40:02.606Z,102636.09
2023-01-28T07:44:06.949Z,102651.38
2023-01-28T07:48:13.497Z,102671.41
2023-01-28T07:52:16.248Z,102659.31
2023-01-28T07:56:19.031Z,102670.03
2023-01-28T08:00:24.409Z,102689.53
2023-01-28T08:04:27.333Z,102682.06
2023-01-28T08:08:30.195Z,102692.94
2023-01-28T08:12:32.958Z,102699.72
2023-01-28T08:16:37.095Z,102710.19
2023-01-28T08:20:41.259Z,102714.72
2023-01-28T08:24:44.041Z,102706.66
2023-01-28T08:28:46.843Z,102708.75
2023-01-28T08:32:51.003Z,102710.34
2023-01-28T08:36:53.995Z,102711.44
2023-01-28T08:40:58.921Z,102703.38
2023-01-28T08:45:01.668Z,102707.66
2023-01-28T08:49:05.906Z,102717.84
2023-01-28T08:53:12.144Z,102727.16
2023-01-28T08:57:15.089Z,102726.06
2023-01-28T09:01:18.178Z,102725.78
2023-01-28T09:05:23.045Z,102739.06
2023-01-28T09:09:25.807Z,102720.72
2023-01-28T09:13:30.020Z,102715.22
2023-01-28T09:17:32.826Z,102713.50
2023-01-28T09:21:39.470Z,102724.25
2023-01-28T09:25:42.741Z,102727.78
2023-01-28T09:29:45.533Z,102746.44
2023-01-28T09:33:54.763Z,102746.44
2023-01-28T09:38:00.098Z,102762.97
2023-01-28T09:42:24.105Z,102765.09
2023-01-28T09:46:32.819Z,102772.53
2023-01-28T09:50:38.515Z,102765.66
2023-01-28T09:54:46.150Z,102760.44
2023-01-28T09:58:48.927Z,102771.47
2023-01-28T10:03:25.730Z,102788.44
2023-01-28T10:07:37.511Z,102775.16
2023-01-28T10:11:55.713Z,102781.38
2023-01-28T10:16:10.802Z,102785.44
2023-01-28T10:20:22.766Z,102756.03
2023-01-28T10:24:32.841Z,102767.63
2023-01-28T10:28:37.576Z,102762.31
2023-01-28T10:32:47.746Z,102762.91
2023-01-28T10:36:52.433Z,102763.59
2023-01-28T10:40:59.769Z,102767.16
2023-01-28T10:45:09.925Z,102754.69
2023-01-28T10:49:16.326Z,102745.78
2023-01-28T10:53:19.346Z,102730.34
2023-01-28T10:57:22.801Z,102729.25
2023-01-28T11:01:38.732Z,102717.78
2023-01-28T11:05:52.557Z,102722.59
2023-01-28T11:09:55.344Z,102712.84
2023-01-28T11:13:58.618Z,102705.75
2023-01-28T11:18:06.204Z,102700.81
2023-01-28T11:22:25.926Z,102699.50
2023-01-28T11:26:32.206Z,102684.34
2023-01-28T11:30:40.191Z,102670.06
2023-01-28T11:34:51.239Z,102643.59
2023-01-28T11:38:55.809Z,102617.97
2023-01-28T11:42:59.742Z,102619.09
2023-01-28T11:47:15.293Z,102606.38
2023-01-28T11:51:30.628Z,102605.69
2023-01-28T11:55:44.534Z,102618.72
2023-01-28T12:00:00.673Z,102614.34
2023-01-28T12:04:19.761Z,102604.28
2023-01-28T12:08:27.304Z,102630.72
2023-01-28T12:12:50.295Z,102612.59
2023-01-28T12:17:03.217Z,102627.25
2023-01-28T12:21:08.295Z,102647.06
2023-01-28T12:25:25.976Z,102643.50
2023-01-28T12:29:36.856Z,102645.75
2023-01-28T12:34:00.495Z,102630.72
2023-01-28T12:38:15.561Z,102631.56
2023-01-28T12:42:28.537Z,102629.78
2023-01-28T12:46:39.726Z,102633.56
2023-01-28T12:50:46.631Z,102630.16
2023-01-28T12:54:57.398Z,102629.28
2023-01-28T12:59:06.724Z,102640.81
2023-01-28T13:03:16.199Z,102628.59
2023-01-28T13:07:26.362Z,102623.69
2023-01-28T13:11:36.218Z,102626.38
2023-01-28T13:15:43.291Z,102620.09
2023-01-28T13:19:46.387Z,102601.28
2023-01-28T13:23:50.815Z,102590.00
2023-01-28T13:27:58.833Z,102575.13
2023-01-28T13:32:24.857Z,102567.81
2023-01-28T13:36:30.558Z,102561.50
2023-01-28T13:40:34.157Z,102557.28
2023-01-28T13:44:39.097Z,102551.00
2023-01-28T13:48:49.132Z,102552.59
2023-01-28T13:52:57.849Z,102559.84
2023-01-28T13:57:22.735Z,102555.06
2023-01-28T14:01:50.117Z,102566.97
2023-01-28T14:06:21.809Z,102578.59
2023-01-28T14:10:35.805Z,102580.84
2023-01-28T14:14:54.988Z,102588.59
2023-01-28T14:19:00.522Z,102593.53
2023-01-28T14:23:07.080Z,102609.94
2023-01-28T14:27:16.778Z,102600.44
2023-01-28T14:31:28.209Z,102600.66
2023-01-28T14:35:33.683Z,102607.44
2023-01-28T14:39:44.717Z,102607.00
2023-01-28T14:43:47.518Z,102599.91
2023-01-28T14:48:09.674Z,102592.13
2023-01-28T14:52:30.508Z,102588.91
2023-01-28T14:56:47.648Z,102599.81
2023-01-28T15:00:55.527Z,102604.66
2023-01-28T15:05:09.596Z,102605.81
2023-01-28T15:09:14.788Z,102611.47
2023-01-28T15:13:26.321Z,102603.72
2023-01-28T15:17:29.421Z,102609.84
2023-01-28T15:21:33.362Z,102621.72
2023-01-28T15:25:36.303Z,102633.06
2023-01-28T15:29:40.445Z,102655.56
2023-01-28T15:33:43.149Z,102650.19
2023-01-28T15:37:45.892Z,102641.84
2023-01-28T15:41:51.927Z,102646.38
2023-01-28T15:45:58.228Z,102635.22
2023-01-28T15:50:03.570Z,102627.41
2023-01-28T15:54:10.673Z,102644.44
2023-01-28T15:58:21.839Z,102645.97
2023-01-28T16:02:29.129Z,102638.38
2023-01-28T16:06:35.739Z,102646.28
2023-01-28T16:10:39.080Z,102639.06
2023-01-28T16:14:46.374Z,102642.19
2023-01-28T16:18:55.906Z,102652.97
2023-01-28T16:23:01.915Z,102670.38
2023-01-28T16:27:07.907Z,102662.59
2023-01-28T16:31:12.733Z,102662.06
2023-01-28T16:35:19.993Z,102653.56
2023-01-28T16:39:22.960Z,102634.63
2023-01-28T16:43:26.035Z,102634.66
2023-01-28T16:47:28.953Z,102637.47
2023-01-28T16:51:33.384Z,102620.50
2023-01-28T16:55:36.247Z,102612.16
2023-01-28T16:59:39.041Z,102597.91
2023-01-28T17:03:43.209Z,102605.66
2023-01-28T17:07:49.382Z,102628.94
2023-01-28T17:11:52.181Z,102639.53
2023-01-28T17:15:56.159Z,102646.44
2023-01-28T17:19:59.111Z,102660.00
2023-01-28T17:24:03.812Z,102651.34
2023-01-28T17:28:07.328Z,102646.69
2023-01-28T17:32:19.003Z,102650.34
2023-01-28T17:36:21.873Z,102635.41
2023-01-28T17:40:26.303Z,102646.25
2023-01-28T17:44:29.478Z,102664.31
2023-01-28T17:48:32.412Z,102663.31
2023-01-28T17:52:35.680Z,102664.44
2023-01-28T17:56:40.349Z,102669.38
2023-01-28T18:00:43.310Z,102666.56
2023-01-28T18:04:46.230Z,102681.09
2023-01-28T18:08:49.206Z,102683.75
2023-01-28T18:12:53.613Z,102682.78
2023-01-28T18:16:56.447Z,102689.59
2023-01-28T18:20:59.650Z,102695.94
2023-01-28T18:25:03.087Z,102696.78
2023-01-28T18:29:07.955Z,102698.03
2023-01-28T18:33:11.818Z,102724.28
2023-01-28T18:37:14.740Z,102707.75
2023-01-28T18:41:17.805Z,102718.38
2023-01-28T18:45:22.505Z,102706.53
2023-01-28T18:49:25.893Z,102705.53
2023-01-28T18:53:31.734Z,102707.13
2023-01-28T18:57:34.965Z,102705.00
2023-01-28T19:01:40.230Z,102705.69
2023-01-28T19:05:43.138Z,102702.44
2023-01-28T19:09:46.277Z,102705.97
2023-01-28T19:13:49.173Z,102712.91
2023-01-28T19:17:54.404Z,102712.19
2023-01-28T19:21:57.255Z,102724.91
2023-01-28T19:26:03.584Z,102724.16
2023-01-28T19:30:08.416Z,102717.25
2023-01-28T19:34:13.049Z,102710.91
2023-01-28T19:38:15.964Z,102720.63
2023-01-28T19:42:19.060Z,102699.06
2023-01-28T19:46:22.058Z,102693.69
2023-01-28T19:50:26.425Z,102691.97
2023-01-28T19:54:29.759Z,102683.81
2023-01-28T19:58:35.177Z,102679.69
2023-01-28T20:02:39.290Z,102677.69
2023-01-28T20:06:43.569Z,102680.06
2023-01-28T20:10:46.442Z,102688.97
2023-01-28T20:14:49.431Z,102675.16
2023-01-28T20:18:53.995Z,102689.13
2023-01-28T20:22:58.317Z,102680.94
2023-01-28T20:27:02.537Z,102679.84
2023-01-28T20:31:07.555Z,102683.81
2023-01-28T20:35:10.895Z,102672.81
2023-01-28T20:39:15.557Z,102672.34
2023-01-28T20:43:18.392Z,102669.97
2023-01-28T20:47:21.328Z,102656.69
2023-01-28T20:51:27.474Z,102653.03
2023-01-28T20:55:32.727Z,102654.72
2023-01-28T20:59:35.497Z,102650.91
2023-01-28T21:03:38.581Z,102659.78
2023-01-28T21:07:41.893Z,102654.16
2023-01-28T21:11:46.198Z,102660.53
2023-01-28T21:15:53.991Z,102650.91
2023-01-28T21:19:57.034Z,102655.28
2023-01-28T21:24:01.400Z,102659.25
2023-01-28T21:28:06.059Z,102659.13
2023-01-28T21:32:09.135Z,102664.91
2023-01-28T21:36:14.937Z,102669.28
2023-01-28T21:40:18.463Z,102673.78
2023-01-28T21:44:23.133Z,102670.28
2023-01-28T21:48:26.720Z,102665.75
2023-01-28T21:52:29.902Z,102653.94
2023-01-28T21:56:33.071Z,102655.03
2023-01-28T22:00:38.490Z,102669.44
2023-01-28T22:04:46.214Z,102658.25
2023-01-28T22:08:49.217Z,102659.53
2023-01-28T22:12:53.729Z,102655.00
2023-01-28T22:16:58.283Z,102656.88
2023-01-28T22:21:02.861Z,102645.72
2023-01-28T22:25:06.784Z,102644.84
2023-01-28T22:29:09.807Z,102630.72
2023-01-28T22:33:14.584Z,102643.44
2023-01-28T22:37:17.595Z,102644.44
2023-01-28T22:41:23.396Z,102641.59
2023-01-28T22:45:26.403Z,102630.72
2023-01-28T22:49:30.715Z,102619.31
2023-01-28T22:53:34.219Z,102626.34
2023-01-28T22:57:37.256Z,102641.47
2023-01-28T23:01:40.294Z,102625.38
2023-01-28T23:05:44.844Z,102611.09
2023-01-28T23:09:48.281Z,102615.06
2023-01-28T23:14:09.439Z,102608.56
2023-01-28T23:18:43.191Z,102609.97
2023-01-28T23:23:05.183Z,102601.94
2023-01-28T23:27:08.321Z,102603.50
2023-01-28T23:31:11.252Z,102609.00
2023-01-28T23:35:15.026Z,102595.72
2023-01-28T23:39:19.645Z,102591.78
2023-01-28T23:43:23.228Z,102590.91
2023-01-28T23:47:26.230Z,102596.56
2023-01-28T23:51:29.191Z,102588.50
2023-01-28T23:55:33.579Z,102602.91
2023-01-28T23:59:36.610Z,102607.00
